sensor_id;sensor_type;location;lat;lon;timestamp;pressure;altitude;pressure_sealevel;temperature;humidity
61573;BME280;47465;43.094;12.434;2023-08-07T00:00:34;98179.59;;;17.12;100.00
61573;BME280;47465;43.094;12.434;2023-08-07T00:03:02;98179.31;;;17.16;100.00
61573;BME280;47465;43.094;12.434;2023-08-07T00:05:28;98166.75;;;16.88;100.00
61573;BME280;47465;43.094;12.434;2023-08-07T00:07:54;98184.41;;;16.92;100.00
61573;BME280;47465;43.094;12.434;2023-08-07T00:10:20;98190.53;;;16.80;100.00
61573;BME280;47465;43.094;12.434;2023-08-07T00:12:46;98166.59;;;16.61;100.00
61573;BME280;47465;43.094;12.434;2023-08-07T00:15:12;98184.84;;;16.70;100.00
61573;BME280;47465;43.094;12.434;2023-08-07T00:17:37;98163.13;;;16.59;100.00
61573;BME280;47465;43.094;12.434;2023-08-07T00:20:06;98173.41;;;16.67;100.00
61573;BME280;47465;43.094;12.434;2023-08-07T00:22:33;98162.56;;;16.54;100.00
61573;BME280;47465;43.094;12.434;2023-08-07T00:24:58;98170.91;;;16.49;100.00
61573;BME280;47465;43.094;12.434;2023-08-07T00:27:24;98148.09;;;16.42;100.00
61573;BME280;47465;43.094;12.434;2023-08-07T00:29:50;98151.31;;;16.33;100.00
61573;BME280;47465;43.094;12.434;2023-08-07T00:32:16;98178.19;;;16.47;100.00
61573;BME280;47465;43.094;12.434;2023-08-07T00:34:42;98163.41;;;16.40;100.00
61573;BME280;47465;43.094;12.434;2023-08-07T00:37:09;98152.06;;;16.35;100.00
61573;BME280;47465;43.094;12.434;2023-08-07T00:39:35;98158.06;;;16.40;100.00
61573;BME280;47465;43.094;12.434;2023-08-07T00:42:01;98161.31;;;16.45;100.00
61573;BME280;47465;43.094;12.434;2023-08-07T00:44:27;98149.78;;;16.43;100.00
61573;BME280;47465;43.094;12.434;2023-08-07T00:46:52;98144.78;;;16.22;100.00
61573;BME280;47465;43.094;12.434;2023-08-07T00:49:20;98151.22;;;16.34;100.00
61573;BME280;47465;43.094;12.434;2023-08-07T00:51:47;98143.03;;;16.21;100.00
61573;BME280;47465;43.094;12.434;2023-08-07T00:54:18;98154.31;;;16.42;100.00
61573;BME280;47465;43.094;12.434;2023-08-07T00:56:44;98155.00;;;16.46;100.00
61573;BME280;47465;43.094;12.434;2023-08-07T00:59:10;98155.09;;;16.59;100.00
61573;BME280;47465;43.094;12.434;2023-08-07T01:01:38;98148.56;;;16.63;100.00
61573;BME280;47465;43.094;12.434;2023-08-07T01:04:04;98161.78;;;16.52;100.00
61573;BME280;47465;43.094;12.434;2023-08-07T01:06:30;98153.81;;;16.50;100.00
61573;BME280;47465;43.094;12.434;2023-08-07T01:08:56;98153.94;;;16.49;100.00
61573;BME280;47465;43.094;12.434;2023-08-07T01:11:32;98175.69;;;16.58;100.00
61573;BME280;47465;43.094;12.434;2023-08-07T01:14:04;98158.81;;;16.56;100.00
61573;BME280;47465;43.094;12.434;2023-08-07T01:16:36;98151.63;;;16.42;100.00
61573;BME280;47465;43.094;12.434;2023-08-07T01:19:04;98151.06;;;16.37;100.00
61573;BME280;47465;43.094;12.434;2023-08-07T01:21:33;98161.09;;;16.34;100.00
61573;BME280;47465;43.094;12.434;2023-08-07T01:24:00;98164.22;;;16.26;100.00
61573;BME280;47465;43.094;12.434;2023-08-07T01:26:26;98143.38;;;16.01;100.00
61573;BME280;47465;43.094;12.434;2023-08-07T01:28:57;98149.69;;;16.00;100.00
61573;BME280;47465;43.094;12.434;2023-08-07T01:31:29;98151.22;;;16.04;100.00
61573;BME280;47465;43.094;12.434;2023-08-07T01:33:59;98146.84;;;16.03;100.00
61573;BME280;47465;43.094;12.434;2023-08-07T01:36:28;98152.38;;;16.00;100.00
61573;BME280;47465;43.094;12.434;2023-08-07T01:38:55;98130.38;;;15.79;100.00
61573;BME280;47465;43.094;12.434;2023-08-07T01:41:24;98144.38;;;15.84;100.00
61573;BME280;47465;43.094;12.434;2023-08-07T01:43:51;98150.16;;;15.76;100.00
61573;BME280;47465;43.094;12.434;2023-08-07T01:46:17;98149.56;;;15.55;100.00
61573;BME280;47465;43.094;12.434;2023-08-07T01:48:43;98136.44;;;15.51;100.00
61573;BME280;47465;43.094;12.434;2023-08-07T01:51:09;98133.75;;;15.51;100.00
61573;BME280;47465;43.094;12.434;2023-08-07T01:53:35;98134.63;;;15.35;100.00
61573;BME280;47465;43.094;12.434;2023-08-07T01:56:01;98138.25;;;15.34;100.00
61573;BME280;47465;43.094;12.434;2023-08-07T01:58:28;98135.94;;;15.44;100.00
61573;BME280;47465;43.094;12.434;2023-08-07T02:00:54;98146.03;;;15.55;100.00
61573;BME280;47465;43.094;12.434;2023-08-07T02:03:20;98126.84;;;15.31;100.00
61573;BME280;47465;43.094;12.434;2023-08-07T02:05:46;98137.91;;;15.40;100.00
61573;BME280;47465;43.094;12.434;2023-08-07T02:08:12;98131.97;;;15.35;100.00
61573;BME280;47465;43.094;12.434;2023-08-07T02:10:38;98150.50;;;15.54;100.00
61573;BME280;47465;43.094;12.434;2023-08-07T02:13:03;98126.16;;;15.43;100.00
61573;BME280;47465;43.094;12.434;2023-08-07T02:15:31;98152.53;;;15.51;100.00
61573;BME280;47465;43.094;12.434;2023-08-07T02:17:56;98125.22;;;15.44;100.00
61573;BME280;47465;43.094;12.434;2023-08-07T02:20:22;98148.28;;;15.47;100.00
61573;BME280;47465;43.094;12.434;2023-08-07T02:22:48;98124.00;;;15.34;100.00
61573;BME280;47465;43.094;12.434;2023-08-07T02:25:15;98139.09;;;15.35;100.00
61573;BME280;47465;43.094;12.434;2023-08-07T02:27:41;98147.06;;;15.36;100.00
61573;BME280;47465;43.094;12.434;2023-08-07T02:30:07;98156.22;;;15.32;100.00
61573;BME280;47465;43.094;12.434;2023-08-07T02:32:34;98152.84;;;15.13;100.00
61573;BME280;47465;43.094;12.434;2023-08-07T02:35:00;98153.81;;;15.12;100.00
61573;BME280;47465;43.094;12.434;2023-08-07T02:37:26;98144.28;;;14.90;100.00
61573;BME280;47465;43.094;12.434;2023-08-07T02:39:52;98149.53;;;14.92;100.00
61573;BME280;47465;43.094;12.434;2023-08-07T02:42:19;98137.88;;;14.93;100.00
61573;BME280;47465;43.094;12.434;2023-08-07T02:44:45;98143.31;;;14.91;100.00
61573;BME280;47465;43.094;12.434;2023-08-07T02:47:11;98138.47;;;14.82;100.00
61573;BME280;47465;43.094;12.434;2023-08-07T02:49:38;98141.50;;;14.92;100.00
61573;BME280;47465;43.094;12.434;2023-08-07T02:52:04;98146.50;;;14.82;100.00
61573;BME280;47465;43.094;12.434;2023-08-07T02:54:30;98153.41;;;14.86;100.00
61573;BME280;47465;43.094;12.434;2023-08-07T02:56:56;98158.00;;;14.84;100.00
61573;BME280;47465;43.094;12.434;2023-08-07T02:59:22;98159.31;;;14.93;100.00
61573;BME280;47465;43.094;12.434;2023-08-07T03:01:50;98158.34;;;14.94;100.00
61573;BME280;47465;43.094;12.434;2023-08-07T03:04:16;98168.50;;;14.87;100.00
61573;BME280;47465;43.094;12.434;2023-08-07T03:06:43;98162.38;;;14.85;100.00
61573;BME280;47465;43.094;12.434;2023-08-07T03:09:09;98158.78;;;14.86;100.00
61573;BME280;47465;43.094;12.434;2023-08-07T03:11:35;98155.31;;;14.84;100.00
61573;BME280;47465;43.094;12.434;2023-08-07T03:14:00;98160.53;;;14.70;100.00
61573;BME280;47465;43.094;12.434;2023-08-07T03:16:26;98146.22;;;14.53;100.00
61573;BME280;47465;43.094;12.434;2023-08-07T03:18:52;98141.69;;;14.55;100.00
61573;BME280;47465;43.094;12.434;2023-08-07T03:21:18;98153.19;;;14.57;100.00
61573;BME280;47465;43.094;12.434;2023-08-07T03:23:45;98149.84;;;14.52;100.00
61573;BME280;47465;43.094;12.434;2023-08-07T03:26:12;98150.25;;;14.45;100.00
61573;BME280;47465;43.094;12.434;2023-08-07T03:28:38;98168.56;;;14.52;100.00
61573;BME280;47465;43.094;12.434;2023-08-07T03:31:04;98159.75;;;14.50;100.00
61573;BME280;47465;43.094;12.434;2023-08-07T03:33:30;98168.72;;;14.49;100.00
61573;BME280;47465;43.094;12.434;2023-08-07T03:35:56;98167.94;;;14.47;100.00
61573;BME280;47465;43.094;12.434;2023-08-07T03:38:22;98184.84;;;14.48;100.00
61573;BME280;47465;43.094;12.434;2023-08-07T03:40:49;98179.19;;;14.54;100.00
61573;BME280;47465;43.094;12.434;2023-08-07T03:43:15;98170.00;;;14.42;100.00
61573;BME280;47465;43.094;12.434;2023-08-07T03:45:42;98190.06;;;14.51;100.00
61573;BME280;47465;43.094;12.434;2023-08-07T03:48:07;98168.44;;;14.38;100.00
61573;BME280;47465;43.094;12.434;2023-08-07T03:50:34;98194.16;;;14.41;100.00
61573;BME280;47465;43.094;12.434;2023-08-07T03:53:02;98179.44;;;14.32;100.00
61573;BME280;47465;43.094;12.434;2023-08-07T03:55:28;98211.59;;;14.48;100.00
61573;BME280;47465;43.094;12.434;2023-08-07T03:57:55;98203.66;;;14.46;100.00
61573;BME280;47465;43.094;12.434;2023-08-07T04:00:24;98192.09;;;14.46;100.00
61573;BME280;47465;43.094;12.434;2023-08-07T04:02:50;98198.47;;;14.43;100.00
61573;BME280;47465;43.094;12.434;2023-08-07T04:05:16;98183.84;;;14.33;100.00
61573;BME280;47465;43.094;12.434;2023-08-07T04:07:42;98204.63;;;14.45;100.00
61573;BME280;47465;43.094;12.434;2023-08-07T04:10:09;98202.25;;;14.39;100.00
61573;BME280;47465;43.094;12.434;2023-08-07T04:12:35;98202.25;;;14.39;100.00
61573;BME280;47465;43.094;12.434;2023-08-07T04:15:02;98195.25;;;14.36;100.00
61573;BME280;47465;43.094;12.434;2023-08-07T04:17:28;98203.44;;;14.33;100.00
61573;BME280;47465;43.094;12.434;2023-08-07T04:19:54;98215.50;;;14.42;100.00
61573;BME280;47465;43.094;12.434;2023-08-07T04:22:20;98204.22;;;14.35;100.00
61573;BME280;47465;43.094;12.434;2023-08-07T04:24:46;98211.78;;;14.45;100.00
61573;BME280;47465;43.094;12.434;2023-08-07T04:27:11;98202.25;;;14.39;100.00
61573;BME280;47465;43.094;12.434;2023-08-07T04:29:37;98206.31;;;14.46;100.00
61573;BME280;47465;43.094;12.434;2023-08-07T04:32:06;98208.00;;;14.49;100.00
61573;BME280;47465;43.094;12.434;2023-08-07T04:34:32;98200.91;;;14.48;100.00
61573;BME280;47465;43.094;12.434;2023-08-07T04:36:58;98215.41;;;14.61;100.00
61573;BME280;47465;43.094;12.434;2023-08-07T04:39:23;98196.09;;;14.54;100.00
61573;BME280;47465;43.094;12.434;2023-08-07T04:41:49;98217.75;;;14.67;100.00
61573;BME280;47465;43.094;12.434;2023-08-07T04:44:15;98219.16;;;14.74;100.00
61573;BME280;47465;43.094;12.434;2023-08-07T04:46:41;98201.78;;;14.66;100.00
61573;BME280;47465;43.094;12.434;2023-08-07T04:49:08;98210.91;;;14.79;100.00
61573;BME280;47465;43.094;12.434;2023-08-07T04:51:34;98214.19;;;14.84;100.00
61573;BME280;47465;43.094;12.434;2023-08-07T04:54:00;98212.13;;;14.89;100.00
61573;BME280;47465;43.094;12.434;2023-08-07T04:56:26;98215.78;;;14.88;100.00
61573;BME280;47465;43.094;12.434;2023-08-07T04:58:52;98222.38;;;14.98;100.00
61573;BME280;47465;43.094;12.434;2023-08-07T05:01:17;98201.28;;;14.92;100.00
61573;BME280;47465;43.094;12.434;2023-08-07T05:03:43;98225.22;;;15.11;100.00
61573;BME280;47465;43.094;12.434;2023-08-07T05:06:11;98228.22;;;15.23;100.00
61573;BME280;47465;43.094;12.434;2023-08-07T05:08:36;98218.16;;;15.26;100.00
61573;BME280;47465;43.094;12.434;2023-08-07T05:11:02;98228.22;;;15.38;100.00
61573;BME280;47465;43.094;12.434;2023-08-07T05:13:28;98221.81;;;15.41;100.00
61573;BME280;47465;43.094;12.434;2023-08-07T05:15:54;98220.28;;;15.53;100.00
61573;BME280;47465;43.094;12.434;2023-08-07T05:18:20;98222.03;;;15.86;100.00
61573;BME280;47465;43.094;12.434;2023-08-07T05:20:45;98224.28;;;16.23;100.00
61573;BME280;47465;43.094;12.434;2023-08-07T05:23:13;98208.09;;;16.55;100.00
61573;BME280;47465;43.094;12.434;2023-08-07T05:25:39;98231.09;;;17.04;100.00
61573;BME280;47465;43.094;12.434;2023-08-07T05:28:04;98234.84;;;17.30;100.00
61573;BME280;47465;43.094;12.434;2023-08-07T05:30:30;98227.94;;;17.55;100.00
61573;BME280;47465;43.094;12.434;2023-08-07T05:32:57;98208.22;;;17.69;100.00
61573;BME280;47465;43.094;12.434;2023-08-07T05:35:23;98213.66;;;17.96;100.00
61573;BME280;47465;43.094;12.434;2023-08-07T05:37:48;98222.63;;;18.09;100.00
61573;BME280;47465;43.094;12.434;2023-08-07T05:40:16;98218.69;;;18.27;100.00
61573;BME280;47465;43.094;12.434;2023-08-07T05:42:41;98237.84;;;18.50;100.00
61573;BME280;47465;43.094;12.434;2023-08-07T05:45:08;98237.13;;;18.74;100.00
61573;BME280;47465;43.094;12.434;2023-08-07T05:47:36;98211.72;;;18.91;100.00
61573;BME280;47465;43.094;12.434;2023-08-07T05:50:03;98248.53;;;18.77;100.00
61573;BME280;47465;43.094;12.434;2023-08-07T05:52:28;98228.78;;;18.51;100.00
61573;BME280;47465;43.094;12.434;2023-08-07T05:54:54;98239.41;;;18.80;100.00
61573;BME280;47465;43.094;12.434;2023-08-07T05:57:21;98246.63;;;18.79;100.00
61573;BME280;47465;43.094;12.434;2023-08-07T05:59:47;98232.75;;;18.58;100.00
61573;BME280;47465;43.094;12.434;2023-08-07T06:02:13;98249.28;;;18.66;100.00
61573;BME280;47465;43.094;12.434;2023-08-07T06:04:39;98235.00;;;18.52;100.00
61573;BME280;47465;43.094;12.434;2023-08-07T06:07:06;98236.72;;;18.93;100.00
61573;BME280;47465;43.094;12.434;2023-08-07T06:09:32;98238.34;;;18.95;100.00
61573;BME280;47465;43.094;12.434;2023-08-07T06:11:59;98230.59;;;19.03;100.00
61573;BME280;47465;43.094;12.434;2023-08-07T06:14:26;98228.66;;;19.18;100.00
61573;BME280;47465;43.094;12.434;2023-08-07T06:16:52;98242.31;;;19.41;100.00
61573;BME280;47465;43.094;12.434;2023-08-07T06:19:18;98224.16;;;19.56;100.00
61573;BME280;47465;43.094;12.434;2023-08-07T06:21:45;98230.53;;;19.67;100.00
61573;BME280;47465;43.094;12.434;2023-08-07T06:24:11;98229.66;;;19.67;98.44
61573;BME280;47465;43.094;12.434;2023-08-07T06:26:37;98247.47;;;19.82;100.00
61573;BME280;47465;43.094;12.434;2023-08-07T06:29:03;98217.97;;;19.79;100.00
61573;BME280;47465;43.094;12.434;2023-08-07T06:31:31;98240.63;;;19.89;98.38
61573;BME280;47465;43.094;12.434;2023-08-07T06:33:57;98242.44;;;20.02;100.00
61573;BME280;47465;43.094;12.434;2023-08-07T06:36:25;98252.59;;;20.22;99.78
61573;BME280;47465;43.094;12.434;2023-08-07T06:38:51;98228.94;;;20.26;100.00
61573;BME280;47465;43.094;12.434;2023-08-07T06:41:17;98248.03;;;20.47;100.00
61573;BME280;47465;43.094;12.434;2023-08-07T06:46:08;98250.81;;;20.58;97.18
61573;BME280;47465;43.094;12.434;2023-08-07T06:48:35;98250.63;;;20.48;96.95
61573;BME280;47465;43.094;12.434;2023-08-07T06:51:01;98249.38;;;20.41;98.68
61573;BME280;47465;43.094;12.434;2023-08-07T06:53:26;98261.22;;;20.51;99.24
61573;BME280;47465;43.094;12.434;2023-08-07T06:55:52;98242.81;;;20.33;99.24
61573;BME280;47465;43.094;12.434;2023-08-07T06:58:18;98235.94;;;20.28;100.00
61573;BME280;47465;43.094;12.434;2023-08-07T07:00:45;98245.69;;;20.18;100.00
61573;BME280;47465;43.094;12.434;2023-08-07T07:03:11;98251.38;;;20.26;100.00
61573;BME280;47465;43.094;12.434;2023-08-07T07:05:38;98250.19;;;20.30;100.00
61573;BME280;47465;43.094;12.434;2023-08-07T07:08:04;98255.06;;;20.49;100.00
61573;BME280;47465;43.094;12.434;2023-08-07T07:10:30;98255.66;;;20.77;99.79
61573;BME280;47465;43.094;12.434;2023-08-07T07:12:56;98263.69;;;20.90;98.59
61573;BME280;47465;43.094;12.434;2023-08-07T07:15:22;98249.88;;;21.28;96.36
61573;BME280;47465;43.094;12.434;2023-08-07T07:17:47;98242.88;;;21.37;96.41
61573;BME280;47465;43.094;12.434;2023-08-07T07:20:13;98253.13;;;21.56;97.64
61573;BME280;47465;43.094;12.434;2023-08-07T07:22:41;98244.50;;;21.73;95.95
61573;BME280;47465;43.094;12.434;2023-08-07T07:25:07;98257.97;;;21.96;92.39
61573;BME280;47465;43.094;12.434;2023-08-07T07:27:33;98255.97;;;22.09;94.52
61573;BME280;47465;43.094;12.434;2023-08-07T07:29:59;98262.75;;;22.26;93.53
61573;BME280;47465;43.094;12.434;2023-08-07T07:32:25;98265.06;;;22.31;92.98
61573;BME280;47465;43.094;12.434;2023-08-07T07:34:51;98267.75;;;22.42;92.64
61573;BME280;47465;43.094;12.434;2023-08-07T07:37:17;98276.81;;;22.52;92.93
61573;BME280;47465;43.094;12.434;2023-08-07T07:39:44;98262.03;;;22.56;90.64
61573;BME280;47465;43.094;12.434;2023-08-07T07:42:10;98246.50;;;22.59;89.81
61573;BME280;47465;43.094;12.434;2023-08-07T07:44:36;98258.00;;;22.72;88.61
61573;BME280;47465;43.094;12.434;2023-08-07T07:47:02;98262.44;;;22.94;88.31
61573;BME280;47465;43.094;12.434;2023-08-07T07:49:28;98269.97;;;23.02;88.15
61573;BME280;47465;43.094;12.434;2023-08-07T07:51:54;98280.94;;;23.21;86.09
61573;BME280;47465;43.094;12.434;2023-08-07T07:54:20;98263.13;;;23.28;86.85
61573;BME280;47465;43.094;12.434;2023-08-07T07:56:47;98278.34;;;23.41;84.14
61573;BME280;47465;43.094;12.434;2023-08-07T07:59:13;98272.72;;;23.32;85.94
61573;BME280;47465;43.094;12.434;2023-08-07T08:01:39;98277.50;;;23.40;85.17
61573;BME280;47465;43.094;12.434;2023-08-07T08:04:05;98266.88;;;23.58;87.15
61573;BME280;47465;43.094;12.434;2023-08-07T08:06:31;98290.28;;;23.80;85.21
61573;BME280;47465;43.094;12.434;2023-08-07T08:08:57;98267.84;;;23.78;82.18
61573;BME280;47465;43.094;12.434;2023-08-07T08:11:25;98275.97;;;23.78;81.72
61573;BME280;47465;43.094;12.434;2023-08-07T08:13:52;98289.91;;;23.94;81.90
61573;BME280;47465;43.094;12.434;2023-08-07T08:16:18;98303.78;;;23.70;81.82
61573;BME280;47465;43.094;12.434;2023-08-07T08:18:43;98296.97;;;22.92;85.14
61573;BME280;47465;43.094;12.434;2023-08-07T08:21:09;98302.22;;;22.84;84.98
61573;BME280;47465;43.094;12.434;2023-08-07T08:23:36;98284.88;;;22.75;86.43
61573;BME280;47465;43.094;12.434;2023-08-07T08:26:02;98291.31;;;23.16;85.14
61573;BME280;47465;43.094;12.434;2023-08-07T08:28:28;98295.19;;;23.44;83.98
61573;BME280;47465;43.094;12.434;2023-08-07T08:30:55;98287.63;;;23.38;83.69
61573;BME280;47465;43.094;12.434;2023-08-07T08:33:21;98304.47;;;23.72;83.88
61573;BME280;47465;43.094;12.434;2023-08-07T08:35:47;98301.75;;;23.93;81.04
61573;BME280;47465;43.094;12.434;2023-08-07T08:38:13;98303.94;;;23.99;81.95
61573;BME280;47465;43.094;12.434;2023-08-07T08:40:39;98278.69;;;24.18;79.99
61573;BME280;47465;43.094;12.434;2023-08-07T08:43:05;98302.06;;;24.50;79.69
61573;BME280;47465;43.094;12.434;2023-08-07T08:45:32;98299.03;;;24.44;80.37
61573;BME280;47465;43.094;12.434;2023-08-07T08:48:01;98308.50;;;24.49;80.46
61573;BME280;47465;43.094;12.434;2023-08-07T08:50:28;98290.91;;;24.63;80.88
61573;BME280;47465;43.094;12.434;2023-08-07T08:52:56;98310.31;;;24.29;80.59
61573;BME280;47465;43.094;12.434;2023-08-07T08:55:23;98277.09;;;23.45;81.48
61573;BME280;47465;43.094;12.434;2023-08-07T08:57:50;98301.81;;;24.03;84.14
61573;BME280;47465;43.094;12.434;2023-08-07T09:00:18;98300.59;;;24.46;81.51
61573;BME280;47465;43.094;12.434;2023-08-07T09:02:46;98308.53;;;24.78;80.52
61573;BME280;47465;43.094;12.434;2023-08-07T09:05:15;98303.53;;;24.74;78.44
61573;BME280;47465;43.094;12.434;2023-08-07T09:07:41;98296.50;;;24.91;78.94
61573;BME280;47465;43.094;12.434;2023-08-07T09:10:09;98292.66;;;24.84;78.23
61573;BME280;47465;43.094;12.434;2023-08-07T09:12:39;98283.63;;;24.73;78.20
61573;BME280;47465;43.094;12.434;2023-08-07T09:15:07;98312.97;;;25.09;77.95
61573;BME280;47465;43.094;12.434;2023-08-07T09:17:38;98303.53;;;24.74;79.87
61573;BME280;47465;43.094;12.434;2023-08-07T09:20:06;98312.13;;;24.79;77.10
61573;BME280;47465;43.094;12.434;2023-08-07T09:22:40;98280.63;;;24.86;78.29
61573;BME280;47465;43.094;12.434;2023-08-07T09:25:07;98301.97;;;25.20;78.93
61573;BME280;47465;43.094;12.434;2023-08-07T09:27:33;98287.31;;;25.40;77.07
61573;BME280;47465;43.094;12.434;2023-08-07T09:29:59;98305.91;;;25.55;73.90
61573;BME280;47465;43.094;12.434;2023-08-07T09:32:25;98310.97;;;25.30;77.03
61573;BME280;47465;43.094;12.434;2023-08-07T09:34:51;98294.44;;;25.51;76.78
61573;BME280;47465;43.094;12.434;2023-08-07T09:37:17;98303.53;;;25.70;74.70
61573;BME280;47465;43.094;12.434;2023-08-07T09:39:46;98295.91;;;25.83;73.64
61573;BME280;47465;43.094;12.434;2023-08-07T09:42:13;98290.75;;;25.80;72.67
61573;BME280;47465;43.094;12.434;2023-08-07T09:44:39;98282.06;;;25.67;74.82
61573;BME280;47465;43.094;12.434;2023-08-07T09:47:12;98301.25;;;25.75;71.29
61573;BME280;47465;43.094;12.434;2023-08-07T09:49:38;98287.97;;;25.52;73.20
61573;BME280;47465;43.094;12.434;2023-08-07T09:52:06;98295.50;;;25.78;74.50
61573;BME280;47465;43.094;12.434;2023-08-07T09:54:33;98299.47;;;25.93;72.95
61573;BME280;47465;43.094;12.434;2023-08-07T09:57:01;98307.59;;;25.66;72.02
61573;BME280;47465;43.094;12.434;2023-08-07T09:59:27;98293.91;;;25.85;74.64
61573;BME280;47465;43.094;12.434;2023-08-07T10:01:53;98286.00;;;25.92;74.85
61573;BME280;47465;43.094;12.434;2023-08-07T10:04:20;98295.53;;;26.33;73.06
61573;BME280;47465;43.094;12.434;2023-08-07T10:06:46;98277.94;;;26.46;72.09
61573;BME280;47465;43.094;12.434;2023-08-07T10:09:12;98283.25;;;26.47;70.18
61573;BME280;47465;43.094;12.434;2023-08-07T10:11:38;98288.09;;;26.53;59.31
61573;BME280;47465;43.094;12.434;2023-08-07T10:14:08;98291.22;;;26.58;57.25
61573;BME280;47465;43.094;12.434;2023-08-07T10:16:34;98302.41;;;26.83;57.16
61573;BME280;47465;43.094;12.434;2023-08-07T10:19:05;98310.34;;;26.76;57.42
61573;BME280;47465;43.094;12.434;2023-08-07T10:21:33;98310.56;;;26.83;58.54
61573;BME280;47465;43.094;12.434;2023-08-07T10:24:03;98302.69;;;26.98;55.04
61573;BME280;47465;43.094;12.434;2023-08-07T10:26:30;98303.69;;;26.97;53.16
61573;BME280;47465;43.094;12.434;2023-08-07T10:28:59;98299.97;;;26.80;54.54
61573;BME280;47465;43.094;12.434;2023-08-07T10:31:27;98306.44;;;26.79;54.98
61573;BME280;47465;43.094;12.434;2023-08-07T10:33:53;98301.75;;;26.43;54.99
61573;BME280;47465;43.094;12.434;2023-08-07T10:36:19;98306.72;;;26.76;54.88
61573;BME280;47465;43.094;12.434;2023-08-07T10:38:48;98285.41;;;26.89;55.14
61573;BME280;47465;43.094;12.434;2023-08-07T10:41:15;98299.16;;;27.23;55.74
61573;BME280;47465;43.094;12.434;2023-08-07T10:43:41;98288.66;;;26.75;54.56
61573;BME280;47465;43.094;12.434;2023-08-07T10:46:10;98305.00;;;27.11;51.21
61573;BME280;47465;43.094;12.434;2023-08-07T10:48:41;98295.69;;;26.59;55.67
61573;BME280;47465;43.094;12.434;2023-08-07T10:51:08;98289.50;;;26.12;55.44
61573;BME280;47465;43.094;12.434;2023-08-07T10:53:35;98308.66;;;25.92;56.49
61573;BME280;47465;43.094;12.434;2023-08-07T10:56:02;98306.72;;;26.30;53.24
61573;BME280;47465;43.094;12.434;2023-08-07T10:58:30;98304.09;;;25.73;53.96
61573;BME280;47465;43.094;12.434;2023-08-07T11:01:15;98310.22;;;25.09;58.77
61573;BME280;47465;43.094;12.434;2023-08-07T11:03:48;98306.09;;;25.14;58.75
61573;BME280;47465;43.094;12.434;2023-08-07T11:06:15;98297.44;;;25.58;57.23
61573;BME280;47465;43.094;12.434;2023-08-07T11:08:41;98297.22;;;25.32;57.64
61573;BME280;47465;43.094;12.434;2023-08-07T11:11:07;98300.06;;;25.40;54.70
61573;BME280;47465;43.094;12.434;2023-08-07T11:13:33;98299.69;;;25.62;57.48
61573;BME280;47465;43.094;12.434;2023-08-07T11:16:00;98286.94;;;25.63;56.87
61573;BME280;47465;43.094;12.434;2023-08-07T11:18:26;98289.59;;;25.82;55.01
61573;BME280;47465;43.094;12.434;2023-08-07T11:20:54;98280.16;;;25.77;55.13
61573;BME280;47465;43.094;12.434;2023-08-07T11:23:23;98271.63;;;25.62;57.29
61573;BME280;47465;43.094;12.434;2023-08-07T11:25:49;98278.69;;;25.92;54.63
61573;BME280;47465;43.094;12.434;2023-08-07T11:28:17;98287.03;;;25.81;56.28
61573;BME280;47465;43.094;12.434;2023-08-07T11:30:44;98287.22;;;26.07;52.70
61573;BME280;47465;43.094;12.434;2023-08-07T11:33:10;98272.03;;;26.05;52.25
61573;BME280;47465;43.094;12.434;2023-08-07T11:35:40;98271.94;;;26.24;52.49
61573;BME280;47465;43.094;12.434;2023-08-07T11:38:07;98268.28;;;26.33;50.31
61573;BME280;47465;43.094;12.434;2023-08-07T11:40:34;98263.25;;;26.11;51.93
61573;BME280;47465;43.094;12.434;2023-08-07T11:42:59;98250.22;;;26.50;50.60
61573;BME280;47465;43.094;12.434;2023-08-07T11:45:25;98270.34;;;27.03;49.13
61573;BME280;47465;43.094;12.434;2023-08-07T11:47:52;98272.75;;;27.50;49.51
61573;BME280;47465;43.094;12.434;2023-08-07T11:50:18;98266.19;;;27.43;47.12
61573;BME280;47465;43.094;12.434;2023-08-07T11:52:44;98252.91;;;26.32;50.65
61573;BME280;47465;43.094;12.434;2023-08-07T11:55:13;98275.16;;;26.91;48.48
61573;BME280;47465;43.094;12.434;2023-08-07T11:57:39;98266.16;;;27.35;49.03
61573;BME280;47465;43.094;12.434;2023-08-07T12:00:08;98274.44;;;27.25;47.93
61573;BME280;47465;43.094;12.434;2023-08-07T12:02:41;98264.44;;;27.86;47.63
61573;BME280;47465;43.094;12.434;2023-08-07T12:05:08;98272.28;;;28.32;44.78
61573;BME280;47465;43.094;12.434;2023-08-07T12:07:36;98268.09;;;28.03;43.07
61573;BME280;47465;43.094;12.434;2023-08-07T12:10:03;98265.47;;;27.93;43.99
61573;BME280;47465;43.094;12.434;2023-08-07T12:12:34;98265.91;;;28.15;42.74
61573;BME280;47465;43.094;12.434;2023-08-07T12:15:00;98255.31;;;28.12;42.67
61573;BME280;47465;43.094;12.434;2023-08-07T12:17:25;98249.84;;;28.12;41.56
61573;BME280;47465;43.094;12.434;2023-08-07T12:19:51;98250.19;;;28.09;42.14
61573;BME280;47465;43.094;12.434;2023-08-07T12:22:19;98241.66;;;28.20;41.17
61573;BME280;47465;43.094;12.434;2023-08-07T12:24:45;98244.06;;;28.23;42.65
61573;BME280;47465;43.094;12.434;2023-08-07T12:27:11;98224.53;;;28.10;40.89
61573;BME280;47465;43.094;12.434;2023-08-07T12:29:38;98221.13;;;28.08;39.86
61573;BME280;47465;43.094;12.434;2023-08-07T12:32:05;98229.94;;;27.93;37.86
61573;BME280;47465;43.094;12.434;2023-08-07T12:34:31;98219.34;;;27.56;38.47
61573;BME280;47465;43.094;12.434;2023-08-07T12:36:58;98192.88;;;27.56;39.38
61573;BME280;47465;43.094;12.434;2023-08-07T12:39:23;98203.25;;;27.79;41.13
61573;BME280;47465;43.094;12.434;2023-08-07T12:41:49;98209.69;;;27.78;39.12
61573;BME280;47465;43.094;12.434;2023-08-07T12:44:15;98197.53;;;27.98;40.06